Time;durP1;ratioP1;P1;durP2;ratioP2;P2;SDS_P1;SDS_P2;PMS_P1;PMS_P2;Temp;Humidity;BMP_temperature;BMP_pressure;BME280_temperature;BME280_humidity;BME280_pressure;Samples;Min_cycle;Max_cycle;Signal;HPM_P1;HPM_P2
2021/09/23 00:01:43;;;;;;;7.15;2.88;;;;;;;7.63;91.89;99819.06;6123035;23;20022;-72
2021/09/23 00:07:04;;;;;;;3.67;2.47;;;;;;;7.66;91.39;99816.34;6109931;23;20025;-72
2021/09/23 00:09:30;;;;;;;4.82;4.35;;;;;;;7.65;91.57;99820.72;6123295;23;20029;-71
2021/09/23 00:11:56;;;;;;;5.32;4.82;;;;;;;7.64;91.75;99811.22;6121102;23;20460;-72
2021/09/23 00:14:22;;;;;;;7.00;3.85;;;;;;;7.67;91.58;99818.88;6122929;23;20021;-72
2021/09/23 00:16:49;;;;;;;7.85;5.10;;;;;;;7.67;91.72;99812.84;6121192;23;20025;-71
2021/09/23 00:19:15;;;;;;;4.18;3.88;;;;;;;7.65;91.61;99812.06;6121283;23;20022;-72
2021/09/23 00:21:41;;;;;;;6.03;5.53;;;;;;;7.65;91.60;99822.47;6123079;23;20044;-71
2021/09/23 00:24:07;;;;;;;8.23;5.70;;;;;;;7.64;92.34;99815.56;6122657;23;20182;-72
2021/09/23 00:26:33;;;;;;;3.75;3.53;;;;;;;7.62;92.44;99820.84;6122567;23;20022;-73
2021/09/23 00:29:00;;;;;;;8.35;3.97;;;;;;;7.64;91.99;99815.56;6122415;23;20017;-74
2021/09/23 00:31:26;;;;;;;7.80;5.63;;;;;;;7.67;92.45;99821.47;6124061;23;20025;-74
2021/09/23 00:33:52;;;;;;;12.80;5.43;;;;;;;7.66;92.47;99824.13;6122482;23;20022;-73
2021/09/23 00:36:18;;;;;;;4.93;4.30;;;;;;;7.67;92.43;99825.81;6121521;23;20025;-72
2021/09/23 00:38:44;;;;;;;6.72;6.10;;;;;;;7.69;92.38;99821.44;6122530;23;20026;-73
2021/09/23 00:41:10;;;;;;;10.95;3.58;;;;;;;7.69;92.50;99826.63;6122265;23;20018;-73
2021/09/23 00:43:36;;;;;;;4.68;4.30;;;;;;;7.70;92.53;99817.91;6122194;23;20029;-72
2021/09/23 00:46:02;;;;;;;7.03;5.45;;;;;;;7.72;92.43;99809.13;6122474;23;20026;-71
2021/09/23 00:48:28;;;;;;;3.08;2.95;;;;;;;7.73;92.46;99804.75;6121196;23;20022;-71
2021/09/23 00:50:56;;;;;;;10.52;2.40;;;;;;;7.77;92.85;99801.13;6122111;23;20018;-72
2021/09/23 00:53:22;;;;;;;5.18;4.88;;;;;;;7.78;92.85;99803.69;6122394;23;20081;-71
2021/09/23 00:55:49;;;;;;;6.78;6.28;;;;;;;7.78;92.88;99805.41;6096461;23;20022;-71
2021/09/23 00:58:16;;;;;;;4.68;4.47;;;;;;;7.73;92.37;99795.22;6096852;23;20021;-72
2021/09/23 01:00:44;;;;;;;5.57;4.90;;;;;;;7.81;92.87;99805.28;6097098;23;20021;-72
2021/09/23 01:03:14;;;;;;;3.63;3.40;;;;;;;7.79;92.60;99813.13;6097631;23;20018;-72
2021/09/23 01:05:42;;;;;;;14.73;4.18;;;;;;;7.80;92.74;99816.59;6120761;23;20022;-72
2021/09/23 01:08:09;;;;;;;3.65;3.45;;;;;;;7.79;92.88;99804.50;6122251;23;20028;-73
2021/09/23 01:10:35;;;;;;;3.70;3.50;;;;;;;7.75;92.53;99810.75;6120822;23;20072;-73
2021/09/23 01:13:02;;;;;;;15.07;5.35;;;;;;;7.77;92.63;99806.31;6120524;23;20018;-74
2021/09/23 01:15:44;;;;;;;17.85;6.90;;;;;;;7.75;92.68;99792.56;6120770;23;20496;-74
2021/09/23 01:18:11;;;;;;;7.38;4.00;;;;;;;7.75;93.08;99795.16;6120892;23;20476;-73
2021/09/23 01:20:41;;;;;;;19.45;5.05;;;;;;;7.75;93.18;99787.38;6097673;23;20022;-74
2021/09/23 01:23:07;;;;;;;8.48;4.50;;;;;;;7.75;92.81;99795.16;6075399;23;20017;-74
2021/09/23 01:25:42;;;;;;;44.58;7.75;;;;;;;7.78;92.93;99792.44;6122164;23;20419;-73
2021/09/23 01:28:09;;;;;;;33.78;3.80;;;;;;;7.77;93.23;99790.72;6120550;23;20042;-73
2021/09/23 01:30:52;;;;;;;8.25;6.63;;;;;;;7.79;93.11;99786.31;6120277;23;20021;-73
2021/09/23 01:33:19;;;;;;;39.13;5.20;;;;;;;7.78;93.20;99782.88;6120740;23;20501;-72
2021/09/23 01:35:45;;;;;;;29.58;6.68;;;;;;;7.80;93.41;99790.59;6120507;23;20482;-74
2021/09/23 01:38:11;;;;;;;18.63;7.40;;;;;;;7.75;93.69;99771.78;6120247;23;20619;-73
2021/09/23 01:40:38;;;;;;;12.32;4.93;;;;;;;7.78;93.25;99776.84;6120274;23;20041;-73
2021/09/23 01:43:06;;;;;;;7.00;4.53;;;;;;;7.73;93.73;99773.59;6096719;23;20024;-74
2021/09/23 01:45:32;;;;;;;46.63;4.25;;;;;;;7.75;93.36;99771.78;6096240;23;20017;-73
2021/09/23 01:47:58;;;;;;;58.53;8.32;;;;;;;7.77;93.78;99777.75;6121730;23;20466;-74
2021/09/23 01:50:27;;;;;;;68.40;7.28;;;;;;;7.77;93.78;99760.41;6096101;23;20037;-73
2021/09/23 01:52:55;;;;;;;75.47;10.85;;;;;;;7.76;93.86;99755.25;6096395;23;20022;-73
2021/09/23 01:55:21;;;;;;;7.68;4.63;;;;;;;7.77;93.65;99759.56;6121954;23;20025;-73
2021/09/23 01:57:49;;;;;;;21.40;5.78;;;;;;;7.77;93.70;99755.19;6120530;23;20029;-73
2021/09/23 02:00:16;;;;;;;26.33;4.63;;;;;;;7.81;93.82;99755.91;6119983;23;20026;-72
2021/09/23 02:02:51;;;;;;;22.27;6.32;;;;;;;7.79;93.70;99750.78;6120554;23;20061;-72
2021/09/23 02:05:37;;;;;;;2.65;2.55;;;;;;;7.84;93.09;99745.38;6120389;23;20041;-73
2021/09/23 02:08:03;;;;;;;29.75;3.58;;;;;;;7.85;93.42;99744.47;6120281;23;20018;-73
2021/09/23 02:10:30;;;;;;;3.35;3.15;;;;;;;7.85;93.84;99734.91;6120460;23;20029;-71
2021/09/23 02:12:56;;;;;;;39.75;6.50;;;;;;;7.87;93.42;99745.22;6120130;23;20021;-71
2021/09/23 02:15:23;;;;;;;13.88;4.97;;;;;;;7.86;93.74;99743.53;6120362;23;20041;-73
2021/09/23 02:17:49;;;;;;;4.93;4.53;;;;;;;7.92;94.01;99739.84;6120551;23;20021;-72
2021/09/23 02:20:17;;;;;;;3.40;3.10;;;;;;;7.94;93.51;99744.03;6120078;23;20029;-74
2021/09/23 02:22:47;;;;;;;3.38;2.97;;;;;;;7.94;93.42;99738.00;6120634;23;20374;-74
2021/09/23 02:25:14;;;;;;;3.50;3.25;;;;;;;7.94;93.74;99741.44;6120033;23;20045;-73
2021/09/23 02:27:40;;;;;;;9.63;1.85;;;;;;;7.86;93.86;99731.41;6120628;23;20018;-73
2021/09/23 02:30:08;;;;;;;3.13;2.92;;;;;;;7.93;93.48;99744.94;6120150;23;20022;-73
2021/09/23 02:32:34;;;;;;;1.70;1.65;;;;;;;7.90;93.63;99739.91;6121891;23;20029;-73
2021/09/23 02:35:01;;;;;;;2.50;2.40;;;;;;;7.98;93.33;99737.81;6095958;23;20018;-72
2021/09/23 02:37:28;;;;;;;3.65;3.35;;;;;;;7.99;93.25;99744.66;6096459;23;20061;-75
2021/09/23 02:39:57;;;;;;;2.40;2.20;;;;;;;7.96;93.17;99739.59;6095985;23;20022;-73
2021/09/23 02:42:23;;;;;;;1.42;1.42;;;;;;;7.98;93.24;99745.59;6120465;23;20049;-74
2021/09/23 02:44:51;;;;;;;2.67;2.33;;;;;;;8.01;93.30;99742.00;6096231;23;20018;-73
2021/09/23 02:47:18;;;;;;;2.45;2.35;;;;;;;7.99;93.71;99744.66;6096094;23;20057;-72
2021/09/23 02:49:44;;;;;;;2.92;2.40;;;;;;;8.01;93.08;99753.25;6120236;23;20025;-74
2021/09/23 02:52:10;;;;;;;2.08;1.95;;;;;;;8.00;93.38;99748.13;6120071;23;20046;-73
2021/09/23 02:54:36;;;;;;;2.63;2.45;;;;;;;8.02;93.03;99744.53;6071805;23;20143;-75
2021/09/23 02:57:02;;;;;;;1.80;1.80;;;;;;;8.01;93.47;99744.59;6120159;23;20052;-75
2021/09/23 02:59:28;;;;;;;2.08;1.98;;;;;;;8.02;93.22;99746.28;6121511;23;20022;-74
2021/09/23 03:01:54;;;;;;;1.85;1.75;;;;;;;8.04;93.48;99741.88;6096143;23;20029;-75
2021/09/23 03:04:20;;;;;;;2.22;1.92;;;;;;;8.05;93.39;99748.75;6119878;23;20462;-75
2021/09/23 03:06:46;;;;;;;1.45;1.45;;;;;;;8.04;93.36;99747.91;6097093;23;20028;-74
2021/09/23 03:31:05;;;;;;;1.63;1.63;;;;;;;8.19;93.26;99751.53;6390500;22;20360;-79
2021/09/23 03:33:31;;;;;;;1.98;1.92;;;;;;;8.24;93.00;99745.22;6378994;22;20014;-81
2021/09/23 03:35:57;;;;;;;1.17;1.17;;;;;;;8.18;93.09;99737.69;6379120;22;20021;-82
2021/09/23 03:38:24;;;;;;;1.10;1.10;;;;;;;8.19;93.00;99728.97;6379260;22;20018;-79
2021/09/23 03:40:50;;;;;;;1.00;1.00;;;;;;;8.22;93.00;99728.84;6378853;22;20051;-80
2021/09/23 03:43:16;;;;;;;0.77;0.77;;;;;;;8.23;92.82;99729.69;6378561;22;20013;-79
2021/09/23 03:45:43;;;;;;;0.73;0.73;;;;;;;8.19;92.58;99721.19;6406375;22;20084;-76
2021/09/23 03:48:08;;;;;;;1.17;1.17;;;;;;;8.19;92.59;99726.38;6378221;22;20600;-79
2021/09/23 03:50:34;;;;;;;0.98;0.98;;;;;;;8.19;92.90;99723.78;6352508;22;20012;-81
2021/09/23 03:53:01;;;;;;;1.10;1.10;;;;;;;8.17;92.98;99725.63;6351926;22;20364;-78
2021/09/23 03:55:27;;;;;;;2.08;1.80;;;;;;;8.21;93.04;99731.53;6352034;22;20018;-77
2021/09/23 03:57:52;;;;;;;1.00;1.00;;;;;;;8.22;92.92;99726.25;6377947;22;20010;-78
2021/09/23 04:00:21;;;;;;;0.77;0.77;;;;;;;8.25;92.57;99727.84;6352024;22;20070;-76
2021/09/23 23:45:10;;;;;;;1.55;1.52;;;;;;;8.34;88.92;99156.13;6367787;22;20107;-78
2021/09/23 23:47:38;;;;;;;1.45;1.45;;;;;;;8.25;88.85;99140.19;6367676;22;20041;-78
2021/09/23 23:50:04;;;;;;;1.52;1.52;;;;;;;8.31;88.80;99148.50;6340203;22;20021;-78
2021/09/23 23:52:31;;;;;;;1.48;1.48;;;;;;;8.36;88.94;99154.31;6367435;22;20468;-77
2021/09/23 23:54:56;;;;;;;2.05;2.05;;;;;;;8.34;89.24;99163.94;6340203;22;20445;-78
2021/09/23 23:57:22;;;;;;;1.40;1.40;;;;;;;8.33;89.03;99151.88;6339803;22;20040;-78
2021/09/23 23:59:48;;;;;;;1.67;1.67;;;;;;;8.30;89.47;99141.66;6367890;22;20433;-78
